SVX weather

Koltsovo Airport
Yekaterinburg, Sverdlovsk Oblast, Russia

Public forecast

Using degrees Celsius for public forecast. Weather courtesy of forecast.io.

METAR (pilot weather report)

Retrieved 2019/04/22 21:30 UTC (21 minutes ago):

USSS 222130Z VRB01MPS CAVOK 05/M02 Q1014 R26R/120050 NOSIG RMK QFE740/0986

TAF (pilot weather forecast)

Retrieved 2019/04/22 21:24 UTC (27 minutes ago):

TAF USSS 221955Z 2221/2321 20003G08MPS 9999 SCT030 FM230000 25003G11MPS 3100 -SHRA BKN011 BKN015CB BECMG 2304/2305 6000 -SHRA BKN020CB FM230900 31006G13MPS 3100 -SHRA BKN011 BKN015CB